sensor_id;sensor_type;location;lat;lon;timestamp;pressure;altitude;pressure_sealevel;temperature;humidity
48035;BME280;33812;46.480;6.834;2022-08-21T06:37:37;93788.44;;;22.76;50.49
48035;BME280;33812;46.480;6.834;2022-08-21T06:41:39;93793.75;;;22.83;51.68
48035;BME280;33812;46.480;6.834;2022-08-21T06:45:41;93804.03;;;22.82;51.76
48035;BME280;33812;46.480;6.834;2022-08-21T06:49:43;93801.81;;;22.90;52.09
48035;BME280;33812;46.480;6.834;2022-08-21T06:53:46;93791.94;;;22.89;51.75
48035;BME280;33812;46.480;6.834;2022-08-21T06:57:48;93805.53;;;22.97;52.03
48035;BME280;33812;46.480;6.834;2022-08-21T07:01:49;93793.69;;;22.96;51.61
48035;BME280;33812;46.480;6.834;2022-08-21T07:05:51;93794.59;;;22.93;52.26
48035;BME280;33812;46.480;6.834;2022-08-21T07:09:54;93791.47;;;22.91;52.75
48035;BME280;33812;46.480;6.834;2022-08-21T07:13:56;93795.38;;;22.93;52.85
48035;BME280;33812;46.480;6.834;2022-08-21T07:17:59;93808.97;;;23.01;52.88
48035;BME280;33812;46.480;6.834;2022-08-21T07:22:02;93804.31;;;22.98;52.54
48035;BME280;33812;46.480;6.834;2022-08-21T07:26:06;93805.28;;;23.04;53.45
48035;BME280;33812;46.480;6.834;2022-08-21T07:30:09;93814.44;;;23.14;52.49
48035;BME280;33812;46.480;6.834;2022-08-21T07:34:13;93810.19;;;23.00;50.01
48035;BME280;33812;46.480;6.834;2022-08-21T07:38:16;93808.44;;;22.93;49.92
48035;BME280;33812;46.480;6.834;2022-08-21T07:42:34;93809.81;;;23.11;50.84
48035;BME280;33812;46.480;6.834;2022-08-21T07:46:40;93819.25;;;23.13;50.81
48035;BME280;33812;46.480;6.834;2022-08-21T07:50:50;93821.56;;;23.15;50.73
48035;BME280;33812;46.480;6.834;2022-08-21T07:54:54;93825.88;;;23.16;51.28
48035;BME280;33812;46.480;6.834;2022-08-21T07:59:01;93827.72;;;23.19;51.21
48035;BME280;33812;46.480;6.834;2022-08-21T08:03:03;93822.97;;;23.19;51.16
48035;BME280;33812;46.480;6.834;2022-08-21T08:07:05;93822.06;;;23.23;52.75
48035;BME280;33812;46.480;6.834;2022-08-21T08:11:08;93826.41;;;23.24;53.06
48035;BME280;33812;46.480;6.834;2022-08-21T08:15:15;93825.94;;;23.25;52.96
48035;BME280;33812;46.480;6.834;2022-08-21T08:19:19;93818.38;;;23.26;53.42
48035;BME280;33812;46.480;6.834;2022-08-21T08:23:21;93818.72;;;23.28;53.11
48035;BME280;33812;46.480;6.834;2022-08-21T08:27:24;93814.72;;;23.29;53.29
48035;BME280;33812;46.480;6.834;2022-08-21T08:31:28;93816.28;;;23.30;53.88
48035;BME280;33812;46.480;6.834;2022-08-21T08:35:30;93807.50;;;23.31;53.62
48035;BME280;33812;46.480;6.834;2022-08-21T08:39:33;93806.72;;;23.31;53.89
48035;BME280;33812;46.480;6.834;2022-08-21T08:43:37;93804.25;;;23.33;54.05
48035;BME280;33812;46.480;6.834;2022-08-21T08:47:44;93805.03;;;23.34;54.06
48035;BME280;33812;46.480;6.834;2022-08-21T08:51:51;93793.19;;;23.33;54.52
48035;BME280;33812;46.480;6.834;2022-08-21T08:55:55;93790.72;;;23.35;54.48
48035;BME280;33812;46.480;6.834;2022-08-21T09:00:00;93787.94;;;23.35;54.39
48035;BME280;33812;46.480;6.834;2022-08-21T09:04:05;93783.94;;;23.36;54.56
48035;BME280;33812;46.480;6.834;2022-08-21T09:08:31;93785.97;;;23.36;54.25
48035;BME280;33812;46.480;6.834;2022-08-21T09:12:43;93779.97;;;23.37;54.41
48035;BME280;33812;46.480;6.834;2022-08-21T09:16:50;93779.50;;;23.39;54.66
48035;BME280;33812;46.480;6.834;2022-08-21T09:21:02;93777.09;;;23.41;54.28
48035;BME280;33812;46.480;6.834;2022-08-21T09:25:15;93762.75;;;23.42;54.18
48035;BME280;33812;46.480;6.834;2022-08-21T09:29:29;93754.44;;;23.42;54.51
48035;BME280;33812;46.480;6.834;2022-08-21T09:33:33;93757.22;;;23.42;54.35
48035;BME280;33812;46.480;6.834;2022-08-21T09:37:53;93751.22;;;23.44;54.89
48035;BME280;33812;46.480;6.834;2022-08-21T09:41:57;93749.22;;;23.45;54.77
48035;BME280;33812;46.480;6.834;2022-08-21T09:46:07;93746.75;;;23.47;54.80
48035;BME280;33812;46.480;6.834;2022-08-21T09:50:13;93749.53;;;23.47;55.00
48035;BME280;33812;46.480;6.834;2022-08-21T09:54:18;93744.75;;;23.47;54.87
48035;BME280;33812;46.480;6.834;2022-08-21T09:58:30;93744.75;;;23.47;55.27
48035;BME280;33812;46.480;6.834;2022-08-21T10:02:34;93738.00;;;23.48;55.34
48035;BME280;33812;46.480;6.834;2022-08-21T10:06:37;93733.97;;;23.49;55.66
48035;BME280;33812;46.480;6.834;2022-08-21T10:10:40;93744.28;;;23.49;55.11
48035;BME280;33812;46.480;6.834;2022-08-21T10:14:50;93739.53;;;23.49;55.68
48035;BME280;33812;46.480;6.834;2022-08-21T10:19:11;93722.88;;;23.49;55.90
48035;BME280;33812;46.480;6.834;2022-08-21T10:23:29;93719.00;;;23.47;54.31
48035;BME280;33812;46.480;6.834;2022-08-21T10:27:42;93715.94;;;23.45;53.83
48035;BME280;33812;46.480;6.834;2022-08-21T10:31:52;93716.22;;;23.47;54.16
48035;BME280;33812;46.480;6.834;2022-08-21T10:36:02;93715.16;;;23.44;53.73
48035;BME280;33812;46.480;6.834;2022-08-21T10:40:15;93707.91;;;23.47;53.82
48035;BME280;33812;46.480;6.834;2022-08-21T10:44:34;93706.38;;;23.46;53.52
48035;BME280;33812;46.480;6.834;2022-08-21T10:48:46;93704.72;;;23.48;53.43
48035;BME280;33812;46.480;6.834;2022-08-21T10:53:05;93699.31;;;23.45;53.10
48035;BME280;33812;46.480;6.834;2022-08-21T10:57:16;93699.75;;;23.43;53.17
48035;BME280;33812;46.480;6.834;2022-08-21T11:01:26;93707.28;;;23.42;53.11
48035;BME280;33812;46.480;6.834;2022-08-21T11:05:31;93695.75;;;23.44;53.09
48035;BME280;33812;46.480;6.834;2022-08-21T11:09:36;93695.28;;;23.46;52.35
48035;BME280;33812;46.480;6.834;2022-08-21T11:13:41;93695.28;;;23.46;52.62
48035;BME280;33812;46.480;6.834;2022-08-21T11:17:50;93691.28;;;23.47;53.48
48035;BME280;33812;46.480;6.834;2022-08-21T11:22:02;93692.84;;;23.48;53.12
48035;BME280;33812;46.480;6.834;2022-08-21T11:26:13;93684.06;;;23.49;52.42
48035;BME280;33812;46.480;6.834;2022-08-21T11:30:16;93676.97;;;23.48;53.25
48035;BME280;33812;46.480;6.834;2022-08-21T11:38:57;93672.50;;;23.51;53.68
48035;BME280;33812;46.480;6.834;2022-08-21T11:43:07;93678.38;;;23.53;53.21
48035;BME280;33812;46.480;6.834;2022-08-21T11:47:15;93675.91;;;23.55;53.36
48035;BME280;33812;46.480;6.834;2022-08-21T11:51:25;93674.34;;;23.54;53.06
48035;BME280;33812;46.480;6.834;2022-08-21T11:55:35;93668.06;;;23.53;52.94
48035;BME280;33812;46.480;6.834;2022-08-21T11:59:41;93667.28;;;23.53;52.59
48035;BME280;33812;46.480;6.834;2022-08-21T12:03:54;93650.63;;;23.53;52.97
48035;BME280;33812;46.480;6.834;2022-08-21T12:08:04;93662.50;;;23.53;53.08
48035;BME280;33812;46.480;6.834;2022-08-21T12:12:22;93661.28;;;23.54;52.89
48035;BME280;33812;46.480;6.834;2022-08-21T12:16:32;93664.81;;;23.55;53.67
48035;BME280;33812;46.480;6.834;2022-08-21T12:20:43;93657.25;;;23.55;53.46
48035;BME280;33812;46.480;6.834;2022-08-21T12:24:49;93666.34;;;23.56;53.96
48035;BME280;33812;46.480;6.834;2022-08-21T12:29:03;93653.28;;;23.57;54.00
48035;BME280;33812;46.480;6.834;2022-08-21T12:33:19;93660.81;;;23.56;53.44
48035;BME280;33812;46.480;6.834;2022-08-21T12:37:33;93655.25;;;23.56;53.78
48035;BME280;33812;46.480;6.834;2022-08-21T12:41:44;93651.28;;;23.57;53.67
48035;BME280;33812;46.480;6.834;2022-08-21T12:45:50;93657.56;;;23.58;53.74
48035;BME280;33812;46.480;6.834;2022-08-21T12:49:58;93652.81;;;23.58;53.15
48035;BME280;33812;46.480;6.834;2022-08-21T12:54:03;93652.81;;;23.58;53.43
48035;BME280;33812;46.480;6.834;2022-08-21T12:58:05;93657.13;;;23.59;52.31
48035;BME280;33812;46.480;6.834;2022-08-21T13:02:15;93650.81;;;23.59;52.74
48035;BME280;33812;46.480;6.834;2022-08-21T13:06:20;93649.56;;;23.60;53.01
48035;BME280;33812;46.480;6.834;2022-08-21T13:10:26;93654.34;;;23.59;53.38
48035;BME280;33812;46.480;6.834;2022-08-21T13:14:37;93653.13;;;23.60;53.45
48035;BME280;33812;46.480;6.834;2022-08-21T13:19:00;93644.81;;;23.60;53.35
48035;BME280;33812;46.480;6.834;2022-08-21T13:23:20;93642.34;;;23.62;53.08
48035;BME280;33812;46.480;6.834;2022-08-21T13:27:27;93630.47;;;23.62;53.01
48035;BME280;33812;46.480;6.834;2022-08-21T13:31:38;93634.03;;;23.62;52.93
48035;BME280;33812;46.480;6.834;2022-08-21T13:35:49;93630.00;;;23.63;52.57
48035;BME280;33812;46.480;6.834;2022-08-21T13:39:52;93631.25;;;23.62;52.20
48035;BME280;33812;46.480;6.834;2022-08-21T13:43:58;93636.81;;;23.62;52.04
48035;BME280;33812;46.480;6.834;2022-08-21T13:48:02;93635.56;;;23.63;51.78
48035;BME280;33812;46.480;6.834;2022-08-21T13:52:13;93631.25;;;23.62;51.61
48035;BME280;33812;46.480;6.834;2022-08-21T13:56:27;93631.53;;;23.64;51.93
48035;BME280;33812;46.480;6.834;2022-08-21T14:00:30;93626.78;;;23.65;51.82
48035;BME280;33812;46.480;6.834;2022-08-21T14:04:37;93622.00;;;23.65;51.92
48035;BME280;33812;46.480;6.834;2022-08-21T14:08:46;93620.44;;;23.64;52.03
48035;BME280;33812;46.480;6.834;2022-08-21T14:12:53;93626.31;;;23.66;52.17
48035;BME280;33812;46.480;6.834;2022-08-21T14:16:58;93619.22;;;23.65;52.18
48035;BME280;33812;46.480;6.834;2022-08-21T14:21:05;93615.22;;;23.66;51.71
48035;BME280;33812;46.480;6.834;2022-08-21T14:25:11;93616.00;;;23.67;50.99
48035;BME280;33812;46.480;6.834;2022-08-21T14:29:16;93604.44;;;23.69;51.21
48035;BME280;33812;46.480;6.834;2022-08-21T14:33:27;93606.91;;;23.66;50.71
48035;BME280;33812;46.480;6.834;2022-08-21T14:37:29;93616.78;;;23.67;50.47
48035;BME280;33812;46.480;6.834;2022-08-21T14:41:32;93607.22;;;23.69;49.02
48035;BME280;33812;46.480;6.834;2022-08-21T14:45:34;93605.97;;;23.70;47.42
48035;BME280;33812;46.480;6.834;2022-08-21T14:49:37;93591.63;;;23.71;48.57
48035;BME280;33812;46.480;6.834;2022-08-21T14:53:47;93596.44;;;23.71;47.35
48035;BME280;33812;46.480;6.834;2022-08-21T14:57:52;93593.66;;;23.71;47.15
48035;BME280;33812;46.480;6.834;2022-08-21T15:01:54;93593.66;;;23.71;47.43
48035;BME280;33812;46.480;6.834;2022-08-21T15:05:56;93585.66;;;23.73;47.11
48035;BME280;33812;46.480;6.834;2022-08-21T15:10:00;93591.97;;;23.73;46.27
48035;BME280;33812;46.480;6.834;2022-08-21T15:14:07;93589.50;;;23.75;47.20
48035;BME280;33812;46.480;6.834;2022-08-21T15:18:14;93588.44;;;23.73;43.89
48035;BME280;33812;46.480;6.834;2022-08-21T15:22:15;93594.41;;;23.71;43.37
48035;BME280;33812;46.480;6.834;2022-08-21T15:26:20;93581.78;;;23.70;42.40
48035;BME280;33812;46.480;6.834;2022-08-21T15:30:24;93575.00;;;23.71;41.94
48035;BME280;33812;46.480;6.834;2022-08-21T15:34:29;93573.31;;;23.74;43.58
48035;BME280;33812;46.480;6.834;2022-08-21T15:38:31;93568.53;;;23.74;44.96
48035;BME280;33812;46.480;6.834;2022-08-21T15:42:37;93568.09;;;23.76;45.11
48035;BME280;33812;46.480;6.834;2022-08-21T15:46:41;93561.28;;;23.77;44.88
48035;BME280;33812;46.480;6.834;2022-08-21T15:50:47;93568.09;;;23.76;45.31
48035;BME280;33812;46.480;6.834;2022-08-21T15:54:49;93560.97;;;23.75;43.94
48035;BME280;33812;46.480;6.834;2022-08-21T15:58:59;93558.50;;;23.77;43.93
48035;BME280;33812;46.480;6.834;2022-08-21T16:03:05;93555.88;;;23.73;45.00
48035;BME280;33812;46.480;6.834;2022-08-21T16:07:08;93555.75;;;23.67;46.79
48035;BME280;33812;46.480;6.834;2022-08-21T16:11:15;93557.59;;;23.71;50.07
48035;BME280;33812;46.480;6.834;2022-08-21T16:15:30;93550.47;;;23.70;47.80
48035;BME280;33812;46.480;6.834;2022-08-21T16:19:34;93559.59;;;23.70;51.95
48035;BME280;33812;46.480;6.834;2022-08-21T16:23:38;93548.94;;;23.69;51.02
48035;BME280;33812;46.480;6.834;2022-08-21T16:27:41;93551.72;;;23.69;51.54
48035;BME280;33812;46.480;6.834;2022-08-21T16:31:44;93547.41;;;23.67;49.58
48035;BME280;33812;46.480;6.834;2022-08-21T16:35:47;93555.44;;;23.65;51.75
48035;BME280;33812;46.480;6.834;2022-08-21T16:39:55;93543.09;;;23.66;50.73
48035;BME280;33812;46.480;6.834;2022-08-21T16:43:57;93552.97;;;23.67;51.68
48035;BME280;33812;46.480;6.834;2022-08-21T16:48:02;93549.72;;;23.69;51.68
48035;BME280;33812;46.480;6.834;2022-08-21T16:52:10;93553.72;;;23.68;51.98
48035;BME280;33812;46.480;6.834;2022-08-21T16:56:13;93554.97;;;23.67;51.29
48035;BME280;33812;46.480;6.834;2022-08-21T17:00:17;93551.72;;;23.69;51.07
48035;BME280;33812;46.480;6.834;2022-08-21T17:04:21;93563.75;;;23.65;51.37
48035;BME280;33812;46.480;6.834;2022-08-21T17:08:26;93559.72;;;23.66;51.56
48035;BME280;33812;46.480;6.834;2022-08-21T17:12:29;93558.19;;;23.65;50.50
48035;BME280;33812;46.480;6.834;2022-08-21T17:16:34;93557.88;;;23.63;51.11
48035;BME280;33812;46.480;6.834;2022-08-21T17:20:36;93554.97;;;23.67;50.68
48035;BME280;33812;46.480;6.834;2022-08-21T17:24:44;93550.34;;;23.64;50.14
48035;BME280;33812;46.480;6.834;2022-08-21T17:28:47;93552.03;;;23.61;50.83
48035;BME280;33812;46.480;6.834;2022-08-21T17:32:51;93558.19;;;23.65;50.18
48035;BME280;33812;46.480;6.834;2022-08-21T17:36:53;93555.44;;;23.65;50.08
48035;BME280;33812;46.480;6.834;2022-08-21T17:40:57;93556.50;;;23.68;48.13
48035;BME280;33812;46.480;6.834;2022-08-21T17:45:02;93557.28;;;23.69;47.95
48035;BME280;33812;46.480;6.834;2022-08-21T17:49:06;93550.81;;;23.62;46.04
48035;BME280;33812;46.480;6.834;2022-08-21T17:53:08;93553.41;;;23.66;46.21
48035;BME280;33812;46.480;6.834;2022-08-21T17:57:17;93555.75;;;23.67;45.80
48035;BME280;33812;46.480;6.834;2022-08-21T18:01:20;93559.13;;;23.72;45.54
48035;BME280;33812;46.480;6.834;2022-08-21T18:05:22;93558.50;;;23.77;46.10
48035;BME280;33812;46.480;6.834;2022-08-21T18:09:24;93554.97;;;23.67;44.63
48035;BME280;33812;46.480;6.834;2022-08-21T18:13:33;93569.16;;;23.69;45.91
48035;BME280;33812;46.480;6.834;2022-08-21T18:17:35;93569.44;;;23.71;45.98
48035;BME280;33812;46.480;6.834;2022-08-21T18:21:37;93572.22;;;23.71;45.86
48035;BME280;33812;46.480;6.834;2022-08-21T18:25:45;93571.78;;;23.73;46.90
48035;BME280;33812;46.480;6.834;2022-08-21T18:29:52;93574.38;;;23.67;46.25
48035;BME280;33812;46.480;6.834;2022-08-21T18:33:55;93571.16;;;23.69;46.03
48035;BME280;33812;46.480;6.834;2022-08-21T18:37:57;93583.78;;;23.70;47.14
48035;BME280;33812;46.480;6.834;2022-08-21T18:41:59;93584.38;;;23.64;47.35
48035;BME280;33812;46.480;6.834;2022-08-21T18:46:04;93585.94;;;23.65;48.32
48035;BME280;33812;46.480;6.834;2022-08-21T18:50:19;93582.22;;;23.59;48.24
48035;BME280;33812;46.480;6.834;2022-08-21T18:54:22;93585.00;;;23.59;47.94
48035;BME280;33812;46.480;6.834;2022-08-21T18:58:24;93585.44;;;23.58;46.74
48035;BME280;33812;46.480;6.834;2022-08-21T19:02:29;93590.06;;;23.51;47.25
48035;BME280;33812;46.480;6.834;2022-08-21T19:06:31;93585.28;;;23.52;46.71
48035;BME280;33812;46.480;6.834;2022-08-21T19:10:37;93591.03;;;23.67;47.07
48035;BME280;33812;46.480;6.834;2022-08-21T19:14:39;93597.97;;;23.72;47.27
48035;BME280;33812;46.480;6.834;2022-08-21T19:18:46;93598.59;;;23.76;47.56
48035;BME280;33812;46.480;6.834;2022-08-21T19:22:48;93599.34;;;23.76;48.10
48035;BME280;33812;46.480;6.834;2022-08-21T19:26:56;93600.44;;;23.79;47.88
48035;BME280;33812;46.480;6.834;2022-08-21T19:31:01;93599.66;;;23.78;47.80
48035;BME280;33812;46.480;6.834;2022-08-21T19:35:06;93601.97;;;23.80;48.04
48035;BME280;33812;46.480;6.834;2022-08-21T19:39:08;93608.78;;;23.79;48.45
48035;BME280;33812;46.480;6.834;2022-08-21T19:43:11;93603.53;;;23.81;48.65
48035;BME280;33812;46.480;6.834;2022-08-21T19:47:20;93605.06;;;23.82;48.37
48035;BME280;33812;46.480;6.834;2022-08-21T19:51:25;93604.63;;;23.84;48.45
48035;BME280;33812;46.480;6.834;2022-08-21T19:55:28;93607.38;;;23.84;47.83
48035;BME280;33812;46.480;6.834;2022-08-21T19:59:31;93595.06;;;23.85;48.38
48035;BME280;33812;46.480;6.834;2022-08-21T20:03:35;93594.75;;;23.83;47.59
48035;BME280;33812;46.480;6.834;2022-08-21T20:07:47;93591.97;;;23.83;47.89
48035;BME280;33812;46.480;6.834;2022-08-21T20:11:51;93595.53;;;23.83;47.34
48035;BME280;33812;46.480;6.834;2022-08-21T20:15:55;93581.19;;;23.85;47.84
48035;BME280;33812;46.480;6.834;2022-08-21T20:19:58;93579.63;;;23.84;47.91
48035;BME280;33812;46.480;6.834;2022-08-21T20:24:02;93580.56;;;23.81;46.86
48035;BME280;33812;46.480;6.834;2022-08-21T20:28:13;93585.03;;;23.78;46.51
48035;BME280;33812;46.480;6.834;2022-08-21T20:32:16;93588.09;;;23.80;46.93
48035;BME280;33812;46.480;6.834;2022-08-21T20:36:18;93594.91;;;23.79;46.27
48035;BME280;33812;46.480;6.834;2022-08-21T20:40:22;93594.91;;;23.79;46.10
48035;BME280;33812;46.480;6.834;2022-08-21T20:44:28;93601.38;;;23.76;45.31
48035;BME280;33812;46.480;6.834;2022-08-21T20:48:34;93588.09;;;23.80;46.38
48035;BME280;33812;46.480;6.834;2022-08-21T20:52:39;93592.44;;;23.81;46.22
48035;BME280;33812;46.480;6.834;2022-08-21T20:56:48;93581.94;;;23.76;46.04
48035;BME280;33812;46.480;6.834;2022-08-21T21:00:56;93594.75;;;23.83;45.72
48035;BME280;33812;46.480;6.834;2022-08-21T21:05:04;93604.31;;;23.82;45.96
48035;BME280;33812;46.480;6.834;2022-08-21T21:09:11;93601.22;;;23.79;46.13
48035;BME280;33812;46.480;6.834;2022-08-21T21:13:20;93604.75;;;23.80;45.80
48035;BME280;33812;46.480;6.834;2022-08-21T21:17:27;93607.84;;;23.82;45.74
48035;BME280;33812;46.480;6.834;2022-08-21T21:21:35;93608.31;;;23.81;46.13
48035;BME280;33812;46.480;6.834;2022-08-21T21:25:44;93601.97;;;23.80;45.36
48035;BME280;33812;46.480;6.834;2022-08-21T21:29:54;93606.78;;;23.79;45.48
48035;BME280;33812;46.480;6.834;2022-08-21T21:33:58;93599.66;;;23.78;45.45
48035;BME280;33812;46.480;6.834;2022-08-21T21:38:05;93607.25;;;23.78;45.53
48035;BME280;33812;46.480;6.834;2022-08-21T21:42:19;93602.91;;;23.77;45.79
48035;BME280;33812;46.480;6.834;2022-08-21T21:46:37;93604.75;;;23.80;45.83
48035;BME280;33812;46.480;6.834;2022-08-21T21:50:52;93604.47;;;23.78;46.07
48035;BME280;33812;46.480;6.834;2022-08-21T21:55:10;93594.91;;;23.79;46.38
48035;BME280;33812;46.480;6.834;2022-08-21T21:59:30;93602.44;;;23.78;46.38
48035;BME280;33812;46.480;6.834;2022-08-21T22:03:52;93596.91;;;23.78;46.20
48035;BME280;33812;46.480;6.834;2022-08-21T22:08:02;93595.38;;;23.77;46.31
48035;BME280;33812;46.480;6.834;2022-08-21T22:12:28;93599.22;;;23.80;46.08
48035;BME280;33812;46.480;6.834;2022-08-21T22:16:34;93599.66;;;23.78;45.53
48035;BME280;33812;46.480;6.834;2022-08-21T22:20:41;93598.00;;;23.81;46.38
48035;BME280;33812;46.480;6.834;2022-08-21T22:24:57;93594.91;;;23.79;45.67
48035;BME280;33812;46.480;6.834;2022-08-21T22:29:01;93598.91;;;23.78;45.95
48035;BME280;33812;46.480;6.834;2022-08-21T22:33:10;93599.81;;;23.75;45.43
48035;BME280;33812;46.480;6.834;2022-08-21T22:37:13;93597.34;;;23.77;45.53
48035;BME280;33812;46.480;6.834;2022-08-21T22:41:36;93592.13;;;23.79;45.10
48035;BME280;33812;46.480;6.834;2022-08-21T22:45:51;93591.50;;;23.75;45.32
48035;BME280;33812;46.480;6.834;2022-08-21T22:49:56;93594.72;;;23.73;44.87
48035;BME280;33812;46.480;6.834;2022-08-21T22:54:03;93598.28;;;23.74;44.82
48035;BME280;33812;46.480;6.834;2022-08-21T22:58:08;93600.59;;;23.75;44.39
48035;BME280;33812;46.480;6.834;2022-08-21T23:02:24;93608.13;;;23.75;44.92
48035;BME280;33812;46.480;6.834;2022-08-21T23:06:30;93589.66;;;23.72;44.04
48035;BME280;33812;46.480;6.834;2022-08-21T23:10:38;93593.66;;;23.71;44.18
48035;BME280;33812;46.480;6.834;2022-08-21T23:14:42;93590.88;;;23.71;44.38
48035;BME280;33812;46.480;6.834;2022-08-21T23:18:53;93594.72;;;23.73;44.60
48035;BME280;33812;46.480;6.834;2022-08-21T23:23:05;93596.75;;;23.73;44.40
48035;BME280;33812;46.480;6.834;2022-08-21T23:27:14;93599.53;;;23.73;44.97
48035;BME280;33812;46.480;6.834;2022-08-21T23:31:27;93600.28;;;23.73;44.61
48035;BME280;33812;46.480;6.834;2022-08-21T23:35:42;93604.63;;;23.74;44.08
48035;BME280;33812;46.480;6.834;2022-08-21T23:40:12;93599.53;;;23.73;44.12
48035;BME280;33812;46.480;6.834;2022-08-21T23:44:31;93609.38;;;23.74;44.37
48035;BME280;33812;46.480;6.834;2022-08-21T23:48:48;93607.38;;;23.74;44.08
48035;BME280;33812;46.480;6.834;2022-08-21T23:53:03;93607.53;;;23.71;44.44
48035;BME280;33812;46.480;6.834;2022-08-21T23:57:18;93599.22;;;23.71;44.32
